Corbin Foss — WDB5265 — position and weather

sailwx.info

Track history (hours):
 
Tides and Currents Weather Stations Pressure Air Temp Water Temp Dewpoint Dewpoint Depression Visibility Wind Speed Wind Dir Waves Ship Positions

Corbin Foss

Owner: Foss International, Inc, Seattle, WA. More information available from US FCC via Universal Licensing System and Coast Guard Vessel Documentation Center.

Last reported at 2016-May-17 08:32 UTC. Time now 2016-May-25 20:47 UTC.
Position N 32°14' W 117°39'.
Warning: this ship's position is 8 days out of date.

Type: Towing. MMSI: 366902220.

Date/timePositionNaut miles runAvg speedWind from/ knotsBaromVisibWave heightAir tempDewpointWater temp
2016-May-17 08:32N 32°14' W 117°39'7 7.4
2016-May-17 07:34N 32°21' W 117°43'7 7.3
2016-May-17 06:34N 32°27' W 117°46'7 7.0
2016-May-17 05:34N 32°34' W 117°49'7 7.1
2016-May-17 04:33N 32°41' W 117°52'7 7.0
2016-May-17 03:33N 32°47' W 117°55'7 7.4
2016-May-17 02:34N 32°54' W 117°59'8 7.5
2016-May-17 01:33N 33°00' W 118°03'8 7.5
2016-May-17 00:27N 33°08' W 118°07'8 7.3
2016-May-16 23:23N 33°15' W 118°10'214 6.0
2016-May-15 11:32N 35°09' W 121°49'8 8.0
2016-May-15 10:33N 35°15' W 121°56'9 8.7
2016-May-15 09:33N 35°20' W 122°04'9 8.2
2016-May-15 08:30N 35°26' W 122°11'8 8.3
2016-May-15 07:33N 35°32' W 122°18'8 7.9
2016-May-15 06:33N 35°38' W 122°24'8 7.7
2016-May-15 05:33N 35°44' W 122°31'8 7.7
2016-May-15 04:33N 35°49' W 122°38'8 7.8
2016-May-15 03:33N 35°54' W 122°45'8 7.8
2016-May-15 02:33N 35°59' W 122°52'8 8.0
2016-May-15 01:33N 36°06' W 122°57'8 8.4
2016-May-15 00:33N 36°14' W 123°02'19 8.3
2016-May-14 22:17N 36°31' W 123°12'6 8.1
2016-May-14 21:33N 36°36' W 123°16'8 7.9
2016-May-14 20:33N 36°42' W 123°21'8 7.7
2016-May-14 19:30N 36°50' W 123°24'8 8.2
2016-May-14 18:30N 36°58' W 123°28'8 8.3
2016-May-14 17:32N 37°05' W 123°32'8 7.6
2016-May-14 16:32N 37°12' W 123°36'8 6.9
2016-May-14 15:22N 37°19' W 123°40'25 5.9
2016-May-14 11:06N 37°44' W 123°48'2 4.5
2016-May-14 10:33N 37°46' W 123°48'5 4.6
2016-May-14 09:34N 37°51' W 123°50'5 4.6
2016-May-14 08:34N 37°55' W 123°51'5 4.8
2016-May-14 07:33N 37°60' W 123°52'5 5.1
2016-May-14 06:33N 38°05' W 123°54'5 5.1
2016-May-14 05:33N 38°10' W 123°55'5 5.0
2016-May-14 04:33N 38°15' W 123°57'5 5.4
2016-May-14 03:33N 38°20' W 123°58'5 5.5
2016-May-14 02:34N 38°25' W 123°59'193 6.2
2016-May-12 19:18N 41°35' W 124°47'23 8.2
2016-May-12 16:34N 41°57' W 124°49'9 8.5
2016-May-12 15:33N 42°06' W 124°50'10 7.7
2016-May-12 14:18N 42°15' W 124°51'5 6.7
2016-May-12 13:34N 42°20' W 124°52'8 7.9
2016-May-12 12:33N 42°28' W 124°54'10 8.0
2016-May-12 11:20N 42°38' W 124°53'6 7.6
2016-May-12 10:34N 42°44' W 124°54'136136.0
2016-May-12 09:33N 44°60' W 125°06'122122.6
2016-May-12 08:34N 42°57' W 124°56'8 7.4
2016-May-12 07:29N 43°05' W 124°56'7 7.2
2016-May-12 06:33N 43°12' W 124°56'7 7.3
2016-May-12 05:33N 43°19' W 124°56'7 7.3
2016-May-12 04:33N 43°27' W 124°57'7 7.4
2016-May-12 03:34N 43°34' W 124°58'7 7.5
2016-May-12 02:34N 43°41' W 124°60'10 7.2
2016-May-12 01:08N 43°51' W 125°02'4 7.4
2016-May-12 00:33N 43°56' W 125°03'7 7.2
2016-May-11 23:33N 44°03' W 125°05'7 7.4
2016-May-11 22:33N 44°10' W 125°04'8 7.5
2016-May-11 21:33N 44°18' W 125°04'7 7.4
2016-May-11 20:33N 44°25' W 125°04'7 7.4
2016-May-11 19:33N 44°33' W 125°05'7 7.5
2016-May-11 18:33N 44°40' W 125°05'8 7.6
2016-May-11 17:34N 44°48' W 125°06'7 7.5
2016-May-11 16:34N 44°55' W 125°06'8 7.7
2016-May-11 15:33N 45°03' W 125°06'7 7.5
2016-May-11 14:34N 45°10' W 125°07'1413.8
2016-May-11 13:33N 45°24' W 125°08'1 0.6
2016-May-11 12:34N 45°25' W 125°08'7 7.1
2016-May-11 11:34N 45°32' W 125°08'7 7.0
2016-May-11 10:34N 45°39' W 125°09'7 7.1
2016-May-11 09:33N 45°46' W 125°09'7 7.0
2016-May-11 08:34N 45°53' W 125°09'1414.0
2016-May-11 07:33N 46°07' W 125°10'1 0.7
2016-May-11 06:34N 46°08' W 125°10'8 7.6
2016-May-11 05:33N 46°15' W 125°10'8 7.6
2016-May-11 04:33N 46°23' W 125°11'7 7.4
2016-May-11 03:33N 46°30' W 125°12'7 7.3
2016-May-11 02:33N 46°37' W 125°13'8 7.8
2016-May-11 01:33N 46°45' W 125°13'8 7.7
2016-May-11 00:33N 46°53' W 125°15'8 7.8
2016-May-10 23:34N 47°01' W 125°15'8 7.6
2016-May-10 22:33N 47°08' W 125°16'7 7.3
2016-May-10 21:34N 47°15' W 125°17'7 7.2
2016-May-10 20:33N 47°23' W 125°17'7 7.1
2016-May-10 19:33N 47°30' W 125°17'7 7.1
2016-May-10 18:33N 47°37' W 125°18'8 7.5
2016-May-10 17:33N 47°44' W 125°18'8 7.7
2016-May-10 16:33N 47°52' W 125°19'8 7.8
2016-May-10 15:34N 47°60' W 125°20'8 7.8
2016-May-10 14:33N 48°07' W 125°14'9 7.7
2016-May-10 13:26N 48°15' W 125°12'6 7.4
2016-May-10 12:34N 48°21' W 125°09'7 7.0
2016-May-10 11:33N 48°27' W 125°03'36 6.8
2016-May-10 06:18N 48°22' W 124°10'7 8.0
2016-May-10 05:29N 48°20' W 124°01'7 8.0
2016-May-10 04:34N 48°18' W 123°51'7 7.5
2016-May-10 03:34N 48°16' W 123°40'6 5.8
2016-May-10 02:34N 48°16' W 123°31'4 4.3
2016-May-10 01:34N 48°20' W 123°27'5 4.9
2016-May-10 00:33N 48°25' W 123°27'1 1.3
2016-May-09 23:29N 48°26' W 123°26'0 0.0
2016-May-09 22:29N 48°26' W 123°26'0 0.0
2016-May-09 21:32N 48°26' W 123°26'0 0.0
2016-May-09 20:32N 48°26' W 123°26'0 0.0
2016-May-09 19:26N 48°26' W 123°26'0 0.0
2016-May-09 18:26N 48°26' W 123°26'0 0.0
2016-May-09 15:23N 48°26' W 123°26'0 0.0
2016-May-09 14:32N 48°26' W 123°26'0 0.0
2016-May-09 13:29N 48°26' W 123°26'0 0.0
2016-May-09 12:29N 48°26' W 123°26'0 0.0
2016-May-09 11:20N 48°26' W 123°26'0 0.0
2016-May-09 10:32N 48°26' W 123°26'0 0.0
2016-May-09 09:29N 48°26' W 123°26'0 0.0
2016-May-09 08:23N 48°26' W 123°26'0 0.0
2016-May-09 06:29N 48°26' W 123°26'0 0.0
2016-May-09 05:23N 48°26' W 123°26'0 0.0
2016-May-09 04:32N 48°26' W 123°26'0 0.0
2016-May-09 03:05N 48°26' W 123°26'0 0.0
2016-May-09 02:32N 48°26' W 123°26'0 0.0
2016-May-09 01:32N 48°26' W 123°26'0 0.0
2016-May-09 00:26N 48°26' W 123°26'0 0.0
2016-May-08 23:29N 48°26' W 123°26'0 0.0
2016-May-08 22:29N 48°26' W 123°26'0 0.0
2016-May-08 21:32N 48°26' W 123°26'0 0.0
2016-May-08 20:20N 48°26' W 123°26'0 0.0
2016-May-08 19:32N 48°26' W 123°26'0 0.0
2016-May-08 18:32N 48°26' W 123°26'0 0.0
2016-May-08 17:32N 48°26' W 123°26'0 0.0
2016-May-08 15:20N 48°26' W 123°26'1 1.8
2016-May-08 14:33N 48°25' W 123°25'8 8.3
2016-May-08 13:33N 48°20' W 123°15'9 8.4
2016-May-08 12:30N 48°16' W 123°03'8 8.3
2016-May-08 11:33N 48°12' W 122°52'6 6.0
2016-May-08 10:33N 48°10' W 122°44'6 5.4
2016-May-08 09:29N 48°06' W 122°39'7 7.6
2016-May-08 08:33N 47°59' W 122°35'8 8.0
2016-May-08 07:33N 47°53' W 122°28'9 8.7
2016-May-08 06:33N 47°44' W 122°26'7 6.7
2016-May-08 05:33N 47°38' W 122°23'0 0.2
2016-May-08 04:31N 47°38' W 122°23'0 0.0
2016-May-08 03:31N 47°38' W 122°23'0 0.0
2016-May-08 02:31N 47°38' W 122°23'0 0.0
2016-May-08 01:31N 47°38' W 122°23'0 0.0
2016-May-08 00:31N 47°38' W 122°23'0 0.0
2016-May-07 23:31N 47°38' W 122°23'0 0.0
2016-May-07 22:31N 47°38' W 122°23'0 0.0
2016-May-07 21:31N 47°38' W 122°23'0 0.0
2016-May-07 20:31N 47°38' W 122°23'0 0.0
2016-May-07 19:31N 47°38' W 122°23'0 0.0
2016-May-07 18:31N 47°38' W 122°23'0 0.0
2016-May-07 17:31N 47°38' W 122°23'0 0.0
2016-May-07 16:31N 47°38' W 122°23'0 0.0
2016-May-07 15:31N 47°38' W 122°23'0 0.0
2016-May-07 14:31N 47°38' W 122°23'0 0.0
2016-May-07 13:31N 47°38' W 122°23'0 0.0
2016-May-07 12:31N 47°38' W 122°23'0 0.0
2016-May-07 11:31N 47°38' W 122°23'0 0.0
2016-May-07 10:31N 47°38' W 122°23'0 0.0
2016-May-07 09:31N 47°38' W 122°23'  
Track history (hours):
 
Tides and Currents Weather Stations Pressure Air Temp Water Temp Dewpoint Dewpoint Depression Visibility Wind Speed Wind Dir Waves Ship Positions

Corbin Foss

Owner: Foss International, Inc, Seattle, WA. More information available from US FCC via Universal Licensing System and Coast Guard Vessel Documentation Center.

Last reported at 2016-May-17 08:32 UTC. Time now 2016-May-25 20:47 UTC.
Position N 32°14' W 117°39'.
Warning: this ship's position is 8 days out of date.

Type: Towing. MMSI: 366902220.

Date/timePositionNaut miles runAvg speedWind from/ knotsBaromVisibWave heightAir tempDewpointWater temp
2016-May-17 08:32N 32°14' W 117°39'7 7.4
2016-May-17 07:34N 32°21' W 117°43'7 7.3
2016-May-17 06:34N 32°27' W 117°46'7 7.0
2016-May-17 05:34N 32°34' W 117°49'7 7.1
2016-May-17 04:33N 32°41' W 117°52'7 7.0
2016-May-17 03:33N 32°47' W 117°55'7 7.4
2016-May-17 02:34N 32°54' W 117°59'8 7.5
2016-May-17 01:33N 33°00' W 118°03'8 7.5
2016-May-17 00:27N 33°08' W 118°07'8 7.3
2016-May-16 23:23N 33°15' W 118°10'214 6.0
2016-May-15 11:32N 35°09' W 121°49'8 8.0
2016-May-15 10:33N 35°15' W 121°56'9 8.7
2016-May-15 09:33N 35°20' W 122°04'9 8.2
2016-May-15 08:30N 35°26' W 122°11'8 8.3
2016-May-15 07:33N 35°32' W 122°18'8 7.9
2016-May-15 06:33N 35°38' W 122°24'8 7.7
2016-May-15 05:33N 35°44' W 122°31'8 7.7
2016-May-15 04:33N 35°49' W 122°38'8 7.8
2016-May-15 03:33N 35°54' W 122°45'8 7.8
2016-May-15 02:33N 35°59' W 122°52'8 8.0
2016-May-15 01:33N 36°06' W 122°57'8 8.4
2016-May-15 00:33N 36°14' W 123°02'19 8.3
2016-May-14 22:17N 36°31' W 123°12'6 8.1
2016-May-14 21:33N 36°36' W 123°16'8 7.9
2016-May-14 20:33N 36°42' W 123°21'8 7.7
2016-May-14 19:30N 36°50' W 123°24'8 8.2
2016-May-14 18:30N 36°58' W 123°28'8 8.3
2016-May-14 17:32N 37°05' W 123°32'8 7.6
2016-May-14 16:32N 37°12' W 123°36'8 6.9
2016-May-14 15:22N 37°19' W 123°40'25 5.9
2016-May-14 11:06N 37°44' W 123°48'2 4.5
2016-May-14 10:33N 37°46' W 123°48'5 4.6
2016-May-14 09:34N 37°51' W 123°50'5 4.6
2016-May-14 08:34N 37°55' W 123°51'5 4.8
2016-May-14 07:33N 37°60' W 123°52'5 5.1
2016-May-14 06:33N 38°05' W 123°54'5 5.1
2016-May-14 05:33N 38°10' W 123°55'5 5.0
2016-May-14 04:33N 38°15' W 123°57'5 5.4
2016-May-14 03:33N 38°20' W 123°58'5 5.5
2016-May-14 02:34N 38°25' W 123°59'193 6.2
2016-May-12 19:18N 41°35' W 124°47'23 8.2
2016-May-12 16:34N 41°57' W 124°49'9 8.5
2016-May-12 15:33N 42°06' W 124°50'10 7.7
2016-May-12 14:18N 42°15' W 124°51'5 6.7
2016-May-12 13:34N 42°20' W 124°52'8 7.9
2016-May-12 12:33N 42°28' W 124°54'10 8.0
2016-May-12 11:20N 42°38' W 124°53'6 7.6
2016-May-12 10:34N 42°44' W 124°54'136136.0
2016-May-12 09:33N 44°60' W 125°06'122122.6
2016-May-12 08:34N 42°57' W 124°56'8 7.4
2016-May-12 07:29N 43°05' W 124°56'7 7.2
2016-May-12 06:33N 43°12' W 124°56'7 7.3
2016-May-12 05:33N 43°19' W 124°56'7 7.3
2016-May-12 04:33N 43°27' W 124°57'7 7.4
2016-May-12 03:34N 43°34' W 124°58'7 7.5
2016-May-12 02:34N 43°41' W 124°60'10 7.2
2016-May-12 01:08N 43°51' W 125°02'4 7.4
2016-May-12 00:33N 43°56' W 125°03'7 7.2
2016-May-11 23:33N 44°03' W 125°05'7 7.4
2016-May-11 22:33N 44°10' W 125°04'8 7.5
2016-May-11 21:33N 44°18' W 125°04'7 7.4
2016-May-11 20:33N 44°25' W 125°04'7 7.4
2016-May-11 19:33N 44°33' W 125°05'7 7.5
2016-May-11 18:33N 44°40' W 125°05'8 7.6
2016-May-11 17:34N 44°48' W 125°06'7 7.5
2016-May-11 16:34N 44°55' W 125°06'8 7.7
2016-May-11 15:33N 45°03' W 125°06'7 7.5
2016-May-11 14:34N 45°10' W 125°07'1413.8
2016-May-11 13:33N 45°24' W 125°08'1 0.6
2016-May-11 12:34N 45°25' W 125°08'7 7.1
2016-May-11 11:34N 45°32' W 125°08'7 7.0
2016-May-11 10:34N 45°39' W 125°09'7 7.1
2016-May-11 09:33N 45°46' W 125°09'7 7.0
2016-May-11 08:34N 45°53' W 125°09'1414.0
2016-May-11 07:33N 46°07' W 125°10'1 0.7
2016-May-11 06:34N 46°08' W 125°10'8 7.6
2016-May-11 05:33N 46°15' W 125°10'8 7.6
2016-May-11 04:33N 46°23' W 125°11'7 7.4
2016-May-11 03:33N 46°30' W 125°12'7 7.3
2016-May-11 02:33N 46°37' W 125°13'8 7.8
2016-May-11 01:33N 46°45' W 125°13'8 7.7
2016-May-11 00:33N 46°53' W 125°15'8 7.8
2016-May-10 23:34N 47°01' W 125°15'8 7.6
2016-May-10 22:33N 47°08' W 125°16'7 7.3
2016-May-10 21:34N 47°15' W 125°17'7 7.2
2016-May-10 20:33N 47°23' W 125°17'7 7.1
2016-May-10 19:33N 47°30' W 125°17'7 7.1
2016-May-10 18:33N 47°37' W 125°18'8 7.5
2016-May-10 17:33N 47°44' W 125°18'8 7.7
2016-May-10 16:33N 47°52' W 125°19'8 7.8
2016-May-10 15:34N 47°60' W 125°20'8 7.8
2016-May-10 14:33N 48°07' W 125°14'9 7.7
2016-May-10 13:26N 48°15' W 125°12'6 7.4
2016-May-10 12:34N 48°21' W 125°09'7 7.0
2016-May-10 11:33N 48°27' W 125°03'36 6.8
2016-May-10 06:18N 48°22' W 124°10'7 8.0
2016-May-10 05:29N 48°20' W 124°01'7 8.0
2016-May-10 04:34N 48°18' W 123°51'7 7.5
2016-May-10 03:34N 48°16' W 123°40'6 5.8
2016-May-10 02:34N 48°16' W 123°31'4 4.3
2016-May-10 01:34N 48°20' W 123°27'5 4.9
2016-May-10 00:33N 48°25' W 123°27'1 1.3
2016-May-09 23:29N 48°26' W 123°26'0 0.0
2016-May-09 22:29N 48°26' W 123°26'0 0.0
2016-May-09 21:32N 48°26' W 123°26'0 0.0
2016-May-09 20:32N 48°26' W 123°26'0 0.0
2016-May-09 19:26N 48°26' W 123°26'0 0.0
2016-May-09 18:26N 48°26' W 123°26'0 0.0
2016-May-09 15:23N 48°26' W 123°26'0 0.0
2016-May-09 14:32N 48°26' W 123°26'0 0.0
2016-May-09 13:29N 48°26' W 123°26'0 0.0
2016-May-09 12:29N 48°26' W 123°26'0 0.0
2016-May-09 11:20N 48°26' W 123°26'0 0.0
2016-May-09 10:32N 48°26' W 123°26'0 0.0
2016-May-09 09:29N 48°26' W 123°26'0 0.0
2016-May-09 08:23N 48°26' W 123°26'0 0.0
2016-May-09 06:29N 48°26' W 123°26'0 0.0
2016-May-09 05:23N 48°26' W 123°26'0 0.0
2016-May-09 04:32N 48°26' W 123°26'0 0.0
2016-May-09 03:05N 48°26' W 123°26'0 0.0
2016-May-09 02:32N 48°26' W 123°26'0 0.0
2016-May-09 01:32N 48°26' W 123°26'0 0.0
2016-May-09 00:26N 48°26' W 123°26'0 0.0
2016-May-08 23:29N 48°26' W 123°26'0 0.0
2016-May-08 22:29N 48°26' W 123°26'0 0.0
2016-May-08 21:32N 48°26' W 123°26'0 0.0
2016-May-08 20:20N 48°26' W 123°26'0 0.0
2016-May-08 19:32N 48°26' W 123°26'0 0.0
2016-May-08 18:32N 48°26' W 123°26'0 0.0
2016-May-08 17:32N 48°26' W 123°26'0 0.0
2016-May-08 15:20N 48°26' W 123°26'1 1.8
2016-May-08 14:33N 48°25' W 123°25'8 8.3
2016-May-08 13:33N 48°20' W 123°15'9 8.4
2016-May-08 12:30N 48°16' W 123°03'8 8.3
2016-May-08 11:33N 48°12' W 122°52'6 6.0
2016-May-08 10:33N 48°10' W 122°44'6 5.4
2016-May-08 09:29N 48°06' W 122°39'7 7.6
2016-May-08 08:33N 47°59' W 122°35'8 8.0
2016-May-08 07:33N 47°53' W 122°28'9 8.7
2016-May-08 06:33N 47°44' W 122°26'7 6.7
2016-May-08 05:33N 47°38' W 122°23'0 0.2
2016-May-08 04:31N 47°38' W 122°23'0 0.0
2016-May-08 03:31N 47°38' W 122°23'0 0.0
2016-May-08 02:31N 47°38' W 122°23'0 0.0
2016-May-08 01:31N 47°38' W 122°23'0 0.0
2016-May-08 00:31N 47°38' W 122°23'0 0.0
2016-May-07 23:31N 47°38' W 122°23'0 0.0
2016-May-07 22:31N 47°38' W 122°23'0 0.0
2016-May-07 21:31N 47°38' W 122°23'0 0.0
2016-May-07 20:31N 47°38' W 122°23'0 0.0
2016-May-07 19:31N 47°38' W 122°23'0 0.0
2016-May-07 18:31N 47°38' W 122°23'0 0.0
2016-May-07 17:31N 47°38' W 122°23'0 0.0
2016-May-07 16:31N 47°38' W 122°23'0 0.0
2016-May-07 15:31N 47°38' W 122°23'0 0.0
2016-May-07 14:31N 47°38' W 122°23'0 0.0
2016-May-07 13:31N 47°38' W 122°23'0 0.0
2016-May-07 12:31N 47°38' W 122°23'0 0.0
2016-May-07 11:31N 47°38' W 122°23'0 0.0
2016-May-07 10:31N 47°38' W 122°23'0 0.0
2016-May-07 09:31N 47°38' W 122°23'  

Dump ship's entire track history